Cudworth, Canada
Current Conditions -  °F | °C
As of 8:00 AM on Tuesday 21 Oct 2014 (Local Time) from CYXE Reporting Station
Scattered Clouds Scattered Clouds  
Wind Chill: 37°   Ceiling: Unl
Heat Index: 43°   Visibility: 15mi
Dew Point: 39°   Wind: 9mph
Humidity: 87%   Direction: 190°S
Pressure: 29.61"   Gusts: NA
Location:  52.48°N, 105.72°W
Report Text: CYXE 211400Z 19008KT 15SM SCT220 06/04 A2961 RMK CI3 SLP039
Loading
Personal Weather Stations






























Interactive Weather Map New forecast layout! Learn more

10-Day Weather Forecast

Advertisements
Track Severe Weather on mobile